Alton, Utah
Current Conditions -  °F | °C
As of 11:53 PM on Sunday 23 Nov 2014 (Local Time) from KBCE Reporting Station
Clear Clear  
Wind Chill: -15°   Ceiling: Unl
Heat Index: -8°   Visibility: 10mi
Dew Point: -13°   Wind: 12mph
Humidity: 68%   Direction: 330°NNW
Pressure: 30.2"   Gusts: NA
Location:  37.44°N, 112.48°W
Report Text: KBCE 240653Z AUTO 33010KT 10SM CLR M08/M13 A3020 RMK AO2 SLP230 T10831133 410061094
Loading
Personal Weather Stations






























Interactive Weather Map New forecast layout! Learn more

10-Day Weather Forecast

Advertisements
Track Severe Weather on mobile